Aaronsburg, Pennsylvania
Current Conditions -  °F | °C
As of 7:53 AM on Thursday 27 Nov 2014 (Local Time) from KUNV Reporting Station
Haze Haze  
Wind Chill: 30°   Ceiling: 2500
Heat Index: 30°   Visibility: 4mi
Dew Point: 28°   Wind: 0mph
Humidity: 93%   Direction: NA
Pressure: 30"   Gusts: NA
Location:  40.9°N, 77.45°W
Report Text: KUNV 271253Z 00000KT 4SM BR OVC025 M01/M02 A3000
Loading
Personal Weather Stations






























Interactive Weather Map New forecast layout! Learn more

10-Day Weather Forecast

Advertisements
Track Severe Weather on mobile